BAW7GV EGLL-LSZH
Flight info
| Callsign | BAW7GV |
|---|---|
| Flight time | N/A |
| Altitude | 29000 |
| Route | DET L6 DVR UL9 KONAN DCT KOK DCT SISGA DCT RITAX DCT KRH M150 LAMGO/N0435F270 T721 SUL/N0422F250 T721 RILAX |
| Aircraft | A320/M-SDE3FGHIRWY/LB1 |
Departure
| Time | 2026-04-30 14:10 |
|---|---|
| Airport | London Heathrow Airport (EGLL) |
Arrival
| Time | N/A |
|---|---|
| Airport | Zürich Airport (LSZH) |
| Time | Latitude | Longitude | Altitude | Speed | Heading |
|---|---|---|---|---|---|
| 2026-04-30 13:51 | 51.46931 | -0.48647 | 86 ft | 0 kts | 360° |
| 2026-04-30 14:00 | 51.46909 | -0.48648 | 86 ft | 4 kts | 0° |
| 2026-04-30 14:00 | 51.46877 | -0.48675 | 86 ft | 4 kts | 88° |
| 2026-04-30 14:00 | 51.46877 | -0.48715 | 86 ft | 4 kts | 90° |
| 2026-04-30 14:01 | 51.46877 | -0.48759 | 86 ft | 4 kts | 90° |
| 2026-04-30 14:01 | 51.46877 | -0.48802 | 86 ft | 3 kts | 90° |
| 2026-04-30 14:01 | 51.46877 | -0.48808 | 86 ft | 0 kts | 90° |
| 2026-04-30 14:03 | 51.46877 | -0.48802 | 86 ft | 2 kts | 90° |
| 2026-04-30 14:03 | 51.46872 | -0.48766 | 88 ft | 5 kts | 121° |
| 2026-04-30 14:04 | 51.46831 | -0.48749 | 88 ft | 8 kts | 182° |
| 2026-04-30 14:04 | 51.46763 | -0.48749 | 88 ft | 12 kts | 180° |
| 2026-04-30 14:04 | 51.46676 | -0.48749 | 86 ft | 10 kts | 178° |
| 2026-04-30 14:04 | 51.46601 | -0.48767 | 90 ft | 4 kts | 199° |
| 2026-04-30 14:05 | 51.46599 | -0.48768 | 86 ft | 0 kts | 199° |
| 2026-04-30 14:07 | 51.46581 | -0.48778 | 89 ft | 6 kts | 199° |
| 2026-04-30 14:07 | 51.46513 | -0.48773 | 89 ft | 13 kts | 153° |
| 2026-04-30 14:07 | 51.46478 | -0.48620 | 90 ft | 18 kts | 90° |
| 2026-04-30 14:08 | 51.46478 | -0.48455 | 86 ft | 1 kts | 90° |
| 2026-04-30 14:08 | 51.46478 | -0.48434 | 88 ft | 3 kts | 90° |
| 2026-04-30 14:08 | 51.46479 | -0.48343 | 87 ft | 5 kts | 89° |
| 2026-04-30 14:09 | 51.46479 | -0.48285 | 89 ft | 5 kts | 89° |
| 2026-04-30 14:09 | 51.46480 | -0.48132 | 88 ft | 40 kts | 90° |
| 2026-04-30 14:09 | 51.46487 | -0.45926 | 86 ft | 148 kts | 90° |
| 2026-04-30 14:10 | 51.46509 | -0.44132 | 394 ft | 165 kts | 88° |
| 2026-04-30 14:10 | 51.46517 | -0.42729 | 881 ft | 166 kts | 91° |
| 2026-04-30 14:10 | 51.46243 | -0.41232 | 1425 ft | 173 kts | 119° |
| 2026-04-30 14:10 | 51.45545 | -0.39514 | 1777 ft | 192 kts | 119° |
| 2026-04-30 14:11 | 51.44806 | -0.37583 | 2013 ft | 216 kts | 118° |
| 2026-04-30 14:11 | 51.43996 | -0.35392 | 2504 ft | 237 kts | 117° |
| 2026-04-30 14:11 | 51.43453 | -0.32868 | 3357 ft | 240 kts | 105° |
| 2026-04-30 14:11 | 51.43064 | -0.30314 | 4297 ft | 241 kts | 104° |
| 2026-04-30 14:12 | 51.42672 | -0.27662 | 5163 ft | 245 kts | 104° |
| 2026-04-30 14:12 | 51.42294 | -0.24971 | 5799 ft | 251 kts | 104° |
| 2026-04-30 14:12 | 51.41919 | -0.22219 | 5974 ft | 252 kts | 105° |
| 2026-04-30 14:12 | 51.41670 | -0.20392 | 6011 ft | 252 kts | 105° |
| 2026-04-30 14:13 | 51.41186 | -0.16840 | 6020 ft | 252 kts | 105° |
| 2026-04-30 14:13 | 51.40829 | -0.14197 | 6017 ft | 252 kts | 105° |
| 2026-04-30 14:13 | 51.40458 | -0.11468 | 6019 ft | 253 kts | 105° |
| 2026-04-30 14:13 | 51.40082 | -0.08734 | 6019 ft | 252 kts | 105° |
| 2026-04-30 14:14 | 51.39699 | -0.05966 | 6069 ft | 255 kts | 105° |
| 2026-04-30 14:14 | 51.39318 | -0.03226 | 6889 ft | 256 kts | 105° |
| 2026-04-30 14:14 | 51.38931 | -0.00428 | 7739 ft | 259 kts | 105° |
| 2026-04-30 14:14 | 51.38537 | 0.02395 | 8532 ft | 262 kts | 105° |
| 2026-04-30 14:15 | 51.38136 | 0.05275 | 9391 ft | 264 kts | 105° |
| 2026-04-30 14:15 | 51.37738 | 0.08134 | 10143 ft | 267 kts | 105° |
| 2026-04-30 14:15 | 51.37329 | 0.11051 | 10605 ft | 282 kts | 105° |
| 2026-04-30 14:15 | 51.36877 | 0.14231 | 10784 ft | 305 kts | 104° |
| 2026-04-30 14:16 | 51.36389 | 0.17683 | 10930 ft | 327 kts | 104° |
| 2026-04-30 14:16 | 51.35880 | 0.21305 | 11414 ft | 337 kts | 104° |
| 2026-04-30 14:16 | 51.35363 | 0.24995 | 12028 ft | 341 kts | 104° |
| 2026-04-30 14:16 | 51.34839 | 0.28716 | 12638 ft | 345 kts | 104° |
| 2026-04-30 14:17 | 51.34307 | 0.32483 | 13262 ft | 349 kts | 104° |
| 2026-04-30 14:17 | 51.33767 | 0.36280 | 13856 ft | 352 kts | 104° |
| 2026-04-30 14:17 | 51.33218 | 0.40114 | 14440 ft | 356 kts | 104° |
| 2026-04-30 14:17 | 51.32676 | 0.43888 | 15003 ft | 359 kts | 104° |
| 2026-04-30 14:18 | 51.32109 | 0.47840 | 15524 ft | 363 kts | 104° |
| 2026-04-30 14:18 | 51.31542 | 0.51785 | 16051 ft | 366 kts | 104° |
| 2026-04-30 14:18 | 51.30386 | 0.59775 | 17093 ft | 372 kts | 105° |
| 2026-04-30 14:19 | 51.29026 | 0.67823 | 18118 ft | 378 kts | 108° |
| 2026-04-30 14:19 | 51.28268 | 0.71844 | 18625 ft | 381 kts | 108° |
| 2026-04-30 14:19 | 51.27488 | 0.75908 | 19143 ft | 384 kts | 108° |
| 2026-04-30 14:20 | 51.26704 | 0.80011 | 19690 ft | 386 kts | 108° |
| 2026-04-30 14:20 | 51.25939 | 0.84065 | 20196 ft | 388 kts | 108° |
| 2026-04-30 14:20 | 51.24402 | 0.92374 | 21155 ft | 393 kts | 107° |
| 2026-04-30 14:21 | 51.23629 | 0.96572 | 21614 ft | 395 kts | 107° |
| 2026-04-30 14:21 | 51.22850 | 1.00793 | 22039 ft | 398 kts | 107° |
| 2026-04-30 14:21 | 51.21268 | 1.09296 | 22884 ft | 402 kts | 107° |
| 2026-04-30 14:22 | 51.20468 | 1.13573 | 23288 ft | 404 kts | 107° |
| 2026-04-30 14:22 | 51.18874 | 1.22075 | 24050 ft | 408 kts | 107° |
| 2026-04-30 14:22 | 51.18043 | 1.26485 | 24416 ft | 410 kts | 107° |
| 2026-04-30 14:23 | 51.16448 | 1.35256 | 25140 ft | 415 kts | 102° |
| 2026-04-30 14:23 | 51.15842 | 1.44460 | 25823 ft | 419 kts | 95° |
| 2026-04-30 14:24 | 51.15410 | 1.53699 | 26521 ft | 423 kts | 95° |
| 2026-04-30 14:24 | 51.15190 | 1.58381 | 26846 ft | 425 kts | 95° |
| 2026-04-30 14:25 | 51.14735 | 1.67800 | 27517 ft | 428 kts | 96° |
| 2026-04-30 14:25 | 51.14339 | 1.75616 | 28286 ft | 425 kts | 96° |
| 2026-04-30 14:26 | 51.13862 | 1.84945 | 29103 ft | 422 kts | 96° |
| 2026-04-30 14:26 | 51.13540 | 1.91134 | 29219 ft | 426 kts | 96° |
| 2026-04-30 14:27 | 51.12881 | 2.03711 | 29220 ft | 430 kts | 96° |
| 2026-04-30 14:27 | 51.12382 | 2.13206 | 29220 ft | 431 kts | 96° |
| 2026-04-30 14:28 | 51.11520 | 2.29014 | 29225 ft | 431 kts | 96° |
| 2026-04-30 14:28 | 51.11074 | 2.37004 | 29443 ft | 435 kts | 96° |
| 2026-04-30 14:29 | 51.10537 | 2.46515 | 30255 ft | 433 kts | 96° |
| 2026-04-30 14:29 | 51.09993 | 2.56025 | 31068 ft | 431 kts | 96° |
| 2026-04-30 14:30 | 51.07952 | 2.69799 | 31238 ft | 429 kts | 116° |
| 2026-04-30 14:31 | 51.05156 | 2.78180 | 31248 ft | 429 kts | 117° |
| 2026-04-30 14:31 | 51.01118 | 2.90344 | 31239 ft | 429 kts | 117° |
| 2026-04-30 14:32 | 50.96928 | 3.02924 | 31248 ft | 430 kts | 117° |
| 2026-04-30 14:33 | 50.94168 | 3.11330 | 31248 ft | 430 kts | 116° |
| 2026-04-30 14:33 | 50.90156 | 3.23960 | 31253 ft | 430 kts | 116° |
| 2026-04-30 14:34 | 50.87461 | 3.32410 | 31250 ft | 430 kts | 116° |
| 2026-04-30 14:34 | 50.84746 | 3.40840 | 31246 ft | 430 kts | 116° |
| 2026-04-30 14:35 | 50.80665 | 3.53417 | 31248 ft | 430 kts | 116° |
| 2026-04-30 14:36 | 50.77925 | 3.61812 | 31250 ft | 430 kts | 116° |
| 2026-04-30 14:36 | 50.75183 | 3.70214 | 31249 ft | 430 kts | 116° |
| 2026-04-30 14:37 | 50.72459 | 3.78552 | 31251 ft | 430 kts | 116° |
| 2026-04-30 14:37 | 50.69708 | 3.86931 | 31255 ft | 430 kts | 116° |
| 2026-04-30 14:38 | 50.66949 | 3.95298 | 31257 ft | 430 kts | 116° |
| 2026-04-30 14:38 | 50.64186 | 4.03653 | 31262 ft | 430 kts | 116° |
| 2026-04-30 14:39 | 50.61437 | 4.11959 | 31262 ft | 431 kts | 116° |
| 2026-04-30 14:39 | 50.58909 | 4.19540 | 31256 ft | 431 kts | 116° |
| 2026-04-30 14:40 | 50.54852 | 4.31705 | 31242 ft | 431 kts | 116° |
| 2026-04-30 14:40 | 50.52052 | 4.40038 | 31244 ft | 431 kts | 116° |
| 2026-04-30 14:41 | 50.49248 | 4.48343 | 31243 ft | 430 kts | 116° |
| 2026-04-30 14:41 | 50.46441 | 4.56638 | 31237 ft | 430 kts | 116° |
| 2026-04-30 14:42 | 50.43652 | 4.64870 | 31236 ft | 430 kts | 116° |
| 2026-04-30 14:42 | 50.40838 | 4.73162 | 31233 ft | 431 kts | 116° |
| 2026-04-30 14:43 | 50.38019 | 4.81442 | 31237 ft | 431 kts | 116° |
| 2026-04-30 14:43 | 50.35186 | 4.89729 | 31240 ft | 432 kts | 116° |
| 2026-04-30 14:44 | 50.32339 | 4.98015 | 31246 ft | 432 kts | 116° |
| 2026-04-30 14:44 | 50.29505 | 5.06228 | 31250 ft | 432 kts | 116° |
| 2026-04-30 14:45 | 50.26644 | 5.14499 | 31255 ft | 432 kts | 116° |
| 2026-04-30 14:45 | 50.23777 | 5.22770 | 31261 ft | 433 kts | 116° |
| 2026-04-30 14:46 | 50.20900 | 5.31028 | 31290 ft | 431 kts | 116° |
| 2026-04-30 14:46 | 50.18049 | 5.39203 | 31316 ft | 428 kts | 116° |
| 2026-04-30 14:47 | 50.15207 | 5.47330 | 31315 ft | 426 kts | 116° |
| 2026-04-30 14:47 | 50.12396 | 5.55349 | 31305 ft | 424 kts | 116° |
| 2026-04-30 14:48 | 50.09561 | 5.63388 | 31298 ft | 424 kts | 116° |
| 2026-04-30 14:48 | 50.06723 | 5.71417 | 31299 ft | 423 kts | 116° |
| 2026-04-30 14:49 | 50.03871 | 5.79466 | 31296 ft | 423 kts | 116° |
| 2026-04-30 14:49 | 50.01026 | 5.87476 | 31297 ft | 424 kts | 116° |
| 2026-04-30 14:50 | 49.96757 | 5.99411 | 31295 ft | 423 kts | 116° |
| 2026-04-30 14:51 | 49.92457 | 6.11388 | 31298 ft | 424 kts | 116° |
| 2026-04-30 14:52 | 49.88161 | 6.23308 | 31305 ft | 424 kts | 116° |
| 2026-04-30 14:52 | 49.83837 | 6.35250 | 31303 ft | 423 kts | 116° |
| 2026-04-30 14:53 | 49.79505 | 6.47165 | 31298 ft | 424 kts | 116° |
| 2026-04-30 14:54 | 49.73716 | 6.63000 | 31300 ft | 424 kts | 116° |
| 2026-04-30 14:55 | 49.69245 | 6.74799 | 31307 ft | 425 kts | 117° |
| 2026-04-30 14:56 | 49.63205 | 6.90485 | 31315 ft | 425 kts | 117° |
| 2026-04-30 14:57 | 49.59511 | 6.99941 | 31279 ft | 427 kts | 117° |
| 2026-04-30 14:58 | 49.53481 | 7.15668 | 31301 ft | 426 kts | 117° |
| 2026-04-30 14:58 | 49.48935 | 7.27430 | 31300 ft | 426 kts | 117° |
| 2026-04-30 15:00 | 49.41311 | 7.46887 | 31295 ft | 426 kts | 117° |
| 2026-04-30 15:01 | 49.35183 | 7.62468 | 31302 ft | 427 kts | 117° |
| 2026-04-30 15:01 | 49.30554 | 7.74145 | 31305 ft | 427 kts | 117° |
| 2026-04-30 15:02 | 49.27504 | 7.81807 | 31301 ft | 427 kts | 117° |
| 2026-04-30 15:03 | 49.19773 | 8.01196 | 31302 ft | 427 kts | 117° |
| 2026-04-30 15:04 | 49.10719 | 8.18949 | 31267 ft | 450 kts | 150° |
| 2026-04-30 15:05 | 49.01529 | 8.23122 | 31263 ft | 462 kts | 160° |
| 2026-04-30 15:06 | 48.95333 | 8.25692 | 31263 ft | 464 kts | 160° |
| 2026-04-30 15:07 | 48.82819 | 8.30905 | 30859 ft | 464 kts | 160° |
| 2026-04-30 15:07 | 48.76575 | 8.33520 | 29187 ft | 467 kts | 160° |
| 2026-04-30 15:08 | 48.70321 | 8.36136 | 27501 ft | 470 kts | 160° |
| 2026-04-30 15:08 | 48.60986 | 8.40005 | 25485 ft | 457 kts | 161° |
| 2026-04-30 15:09 | 48.54898 | 8.42517 | 24112 ft | 450 kts | 161° |
| 2026-04-30 15:09 | 48.48932 | 8.44979 | 23051 ft | 437 kts | 161° |
| 2026-04-30 15:10 | 48.43291 | 8.47291 | 22782 ft | 401 kts | 161° |
| 2026-04-30 15:11 | 48.33080 | 8.51474 | 20385 ft | 371 kts | 161° |
| 2026-04-30 15:11 | 48.28179 | 8.53477 | 19023 ft | 361 kts | 161° |
| 2026-04-30 15:12 | 48.21027 | 8.56391 | 17042 ft | 349 kts | 161° |
| 2026-04-30 15:13 | 48.16247 | 8.57423 | 15702 ft | 347 kts | 177° |
| 2026-04-30 15:14 | 48.06906 | 8.55080 | 13171 ft | 336 kts | 189° |
| 2026-04-30 15:14 | 48.02851 | 8.53841 | 11849 ft | 328 kts | 189° |
| 2026-04-30 15:16 | 47.91794 | 8.55039 | 8342 ft | 300 kts | 150° |
| 2026-04-30 15:17 | 47.85718 | 8.61781 | 7160 ft | 253 kts | 137° |
| 2026-04-30 15:18 | 47.78502 | 8.63666 | 5908 ft | 248 kts | 237° |
| 2026-04-30 15:19 | 47.77539 | 8.56323 | 4824 ft | 239 kts | 263° |